Terminal Aerodrome Forecast
Issued by NWS

Home | Current Version | Previous Version | Text Only | Print | Product List | Glossary On
Versions: 1 2 3 4 5 6 7 8 9 10 11 12 13 14 15 16 17 18 19 20 21 22 23 24 25 26 27 28 29 30 31
000
FTAK31 PANC 161739
TAFAGK
TAF
PAGK 161739Z 1618/1718 16010KT P6SM VCSH BKN060
      TEMPO 1621/1624 16015G25KT
     FM170000 16015G25KT P6SM VCSH BKN060
     FM170500 16010KT P6SM VCSH BKN060=

USA.gov is the U.S. government's official web portal to all federal, state and local government web resources and services.